Al, Norway

5:29 PM CET on February 10, 2016 (GMT +0100)
Aal i Hallingdal | | Change Station
CLOSE
Current Station
Personal Weather Station
Location: Aal, BUSKERUD
Elevation: 1475 ft
Nearby Weather Stations

Elev 1475 ft 60.62 °N, 8.52 °E | Updated 14 minutes ago

Mostly Cloudy
Mostly Cloudy
23.4 °F
Feels Like 23 °F
N
0.0
Wind Variable Wind from North
Gusts 1.0 mph

Today
High -- | Low -- °F
--% Chance of Precip.
Yesterday
High -- | Low -- °F
Precip. -- in
Pressure 29.09 in
Visibility 6.2 miles
Clouds Mostly Cloudy 4000 ft
Windchill 23 °F
Dew Point 21 °F
Humidity 90%
Rainfall 0.00 in
Snow Depth Not available.
8:21 AM 4:59 PM
Waxing Crescent, 6% visible
METAR ENFG 101550Z 01006KT 330V040 9999 BKN040 M04/M05 Q0985
Pressure 29.09 in
Visibility 6.2 miles
Clouds Mostly Cloudy 4000 ft
Windchill 23 °F
Dew Point 21 °F
Humidity 90%
Rainfall 0.00 in
Snow Depth Not available.
8:21 AM 4:59 PM
Waxing Crescent, 6% visible
METAR ENFG 101550Z 01006KT 330V040 9999 BKN040 M04/M05 Q0985

10-Day Weather Forecast

Almanac

Astronomy

Feb. 10, 2016 Rise Set
Actual Time
Civil Twilight
Nautical Twilight
Astronomical Twilight
Moon
Length of Visible Light
Length of Day
Tomorrow will be .
, % of the Moon is Illuminated

Today's Extremes

Country Highs Country Lows

Community

WunderPhotos

Upload Photos

1,891,881 photos uploaded!

WunderBlog® & News

Nearby

Air Quality

  Air Quality AQ Index Pollutant
Not available.

Snow Depth

Station Depth Elevation

Earthquake Activity

City Distance Mag. Time & Date
Minimum magnitude displayed is 2.5.

Coastal Water Temperatures

Place Temperature

Stations

Nearby Weather Stations

Station Location Temp. Windchill Dew Point Humidity Wind Precip. Elev Updated Type